createdAt,value
2022-10-04T00:01:49.526Z,10.00
2022-10-04T00:04:23.462Z,10.10
2022-10-04T00:06:58.252Z,10.10
2022-10-04T00:09:31.829Z,10.10
2022-10-04T00:12:02.586Z,10.10
2022-10-04T00:14:34.136Z,10.10
2022-10-04T00:17:11.740Z,10.10
2022-10-04T00:19:43.659Z,10.10
2022-10-04T00:22:21.068Z,10.00
2022-10-04T00:25:18.531Z,10.00
2022-10-04T00:28:28.533Z,10.00
2022-10-04T00:31:18.901Z,10.00
2022-10-04T00:33:48.418Z,10.00
2022-10-04T00:36:46.883Z,10.00
2022-10-04T00:39:27.456Z,10.00
2022-10-04T00:42:04.424Z,9.90
2022-10-04T00:44:40.022Z,9.90
2022-10-04T00:47:20.714Z,9.90
2022-10-04T00:49:52.381Z,10.00
2022-10-04T00:52:23.970Z,10.00
2022-10-04T00:54:54.048Z,10.00
2022-10-04T00:57:25.340Z,10.00
2022-10-04T00:59:57.345Z,10.00
2022-10-04T01:02:31.865Z,10.00
2022-10-04T01:05:03.861Z,10.00
2022-10-04T01:07:38.072Z,10.00
2022-10-04T01:10:10.157Z,10.00
2022-10-04T01:12:45.268Z,10.00
2022-10-04T01:15:23.525Z,10.10
2022-10-04T01:18:09.553Z,10.10
2022-10-04T01:20:41.039Z,10.10
2022-10-04T01:23:12.307Z,10.10
2022-10-04T01:25:52.691Z,10.10
2022-10-04T01:28:20.833Z,10.10
2022-10-04T01:30:49.361Z,10.10
2022-10-04T01:33:17.303Z,10.10
2022-10-04T01:35:45.736Z,10.10
2022-10-04T01:38:15.243Z,10.00
2022-10-04T01:40:49.502Z,10.10
2022-10-04T01:43:24.869Z,10.10
2022-10-04T01:45:56.433Z,10.10
2022-10-04T01:48:28.990Z,10.10
2022-10-04T01:51:01.383Z,10.00
2022-10-04T01:53:32.366Z,10.00
2022-10-04T01:56:09.180Z,10.00
2022-10-04T01:58:44.109Z,10.00
2022-10-04T02:01:16.142Z,9.90
2022-10-04T02:03:48.779Z,9.90
2022-10-04T02:06:17.558Z,9.90
2022-10-04T02:08:51.625Z,9.90
2022-10-04T02:11:21.863Z,9.90
2022-10-04T02:13:53.668Z,9.90
2022-10-04T02:16:24.466Z,9.90
2022-10-04T02:18:53.816Z,9.90
2022-10-04T02:21:23.856Z,9.90
2022-10-04T02:23:54.422Z,9.90
2022-10-04T02:26:22.474Z,9.90
2022-10-04T02:28:50.641Z,9.90
2022-10-04T02:31:40.067Z,9.90
2022-10-04T02:34:08.670Z,9.90
2022-10-04T02:36:37.779Z,9.80
2022-10-04T02:39:11.679Z,9.90
2022-10-04T02:41:44.604Z,9.90
2022-10-04T02:44:17.121Z,9.90
2022-10-04T02:46:51.411Z,9.90
2022-10-04T02:49:27.586Z,9.90
2022-10-04T02:52:02.708Z,9.90
2022-10-04T02:54:37.751Z,9.90
2022-10-04T02:57:06.024Z,9.90
2022-10-04T02:59:35.616Z,9.90
2022-10-04T03:02:28.750Z,9.90
2022-10-04T03:05:02.430Z,9.90
2022-10-04T03:07:33.560Z,9.90
2022-10-04T03:10:08.141Z,10.00
2022-10-04T03:12:38.847Z,9.90
2022-10-04T03:15:08.966Z,9.90
2022-10-04T03:17:37.010Z,9.80
2022-10-04T03:20:06.764Z,9.80
2022-10-04T03:22:34.793Z,9.70
2022-10-04T03:25:04.282Z,9.70
2022-10-04T03:27:35.807Z,9.70
2022-10-04T03:30:03.872Z,9.70
2022-10-04T03:32:32.379Z,9.80
2022-10-04T03:35:03.751Z,9.80
2022-10-04T03:37:35.688Z,9.80
2022-10-04T03:40:09.539Z,9.80
2022-10-04T03:42:38.896Z,9.80
2022-10-04T03:45:12.325Z,9.80
2022-10-04T03:47:42.497Z,9.80
2022-10-04T03:50:17.595Z,9.80
2022-10-04T03:52:51.027Z,9.80
2022-10-04T03:55:21.543Z,9.80
2022-10-04T03:57:49.578Z,9.80
2022-10-04T04:00:19.295Z,9.80
2022-10-04T04:02:52.108Z,9.80
2022-10-04T04:05:24.448Z,9.80
2022-10-04T04:08:00.646Z,9.70
2022-10-04T04:10:32.531Z,9.70
2022-10-04T04:13:04.875Z,9.70
2022-10-04T04:15:34.527Z,9.70
2022-10-04T04:18:06.123Z,9.70
2022-10-04T04:20:36.123Z,9.70
2022-10-04T04:23:13.502Z,9.70
2022-10-04T04:25:45.949Z,9.70
2022-10-04T04:28:22.646Z,9.70
2022-10-04T04:30:54.443Z,9.70
2022-10-04T04:33:29.867Z,9.70
2022-10-04T04:36:05.231Z,9.70
2022-10-04T04:38:35.216Z,9.70
2022-10-04T04:41:11.204Z,9.70
2022-10-04T04:43:44.915Z,9.80
2022-10-04T04:46:27.198Z,9.80
2022-10-04T04:49:02.412Z,9.80
2022-10-04T04:51:32.911Z,9.80
2022-10-04T04:54:03.423Z,9.80
2022-10-04T04:56:33.559Z,9.70
2022-10-04T04:59:05.795Z,9.70
2022-10-04T05:01:36.276Z,9.60
2022-10-04T05:04:06.538Z,9.60
2022-10-04T05:06:36.361Z,9.60
2022-10-04T05:09:05.302Z,9.50
2022-10-04T05:11:39.637Z,9.50
2022-10-04T05:14:10.354Z,9.40
2022-10-04T05:16:42.925Z,9.40
2022-10-04T05:19:17.193Z,9.40
2022-10-04T05:21:47.784Z,9.40
2022-10-04T05:24:22.434Z,9.40
2022-10-04T05:26:58.600Z,9.50
2022-10-04T05:29:29.124Z,9.40
2022-10-04T05:32:06.143Z,9.40
2022-10-04T05:34:40.416Z,9.40
2022-10-04T05:37:29.553Z,9.50
2022-10-04T05:40:06.542Z,9.50
2022-10-04T05:42:41.473Z,9.50
2022-10-04T05:45:19.604Z,9.50
2022-10-04T05:47:50.188Z,9.60
2022-10-04T05:50:21.838Z,9.60
2022-10-04T05:52:52.186Z,9.60
2022-10-04T05:55:28.631Z,9.60
2022-10-04T05:58:26.712Z,9.60
2022-10-04T06:01:16.691Z,9.70
2022-10-04T06:04:02.487Z,9.70
2022-10-04T06:06:39.367Z,9.70
2022-10-04T06:09:14.463Z,9.70
2022-10-04T06:11:54.242Z,9.80
2022-10-04T06:15:06.496Z,9.80
2022-10-04T06:18:06.803Z,9.80
2022-10-04T06:20:54.820Z,9.90
2022-10-04T06:23:25.384Z,9.80
2022-10-04T06:25:57.928Z,9.80
2022-10-04T06:28:32.651Z,9.80
2022-10-04T06:31:32.576Z,9.80
2022-10-04T06:34:28.460Z,9.80
2022-10-04T06:37:13.591Z,9.80
2022-10-04T06:40:13.444Z,9.80
2022-10-04T06:42:56.581Z,9.80
2022-10-04T06:45:38.352Z,9.80
2022-10-04T06:48:33.781Z,9.80
2022-10-04T06:51:14.076Z,9.80
2022-10-04T06:53:53.614Z,9.80
2022-10-04T06:56:39.136Z,9.80
2022-10-04T06:59:39.120Z,9.80
2022-10-04T07:02:13.876Z,9.80
2022-10-04T07:05:07.457Z,9.80
2022-10-04T07:07:39.615Z,9.90
2022-10-04T07:10:25.155Z,9.90
2022-10-04T07:13:00.797Z,10.00
2022-10-04T07:15:34.883Z,10.00
2022-10-04T07:18:09.781Z,10.10
2022-10-04T07:20:39.340Z,10.10
2022-10-04T07:23:14.210Z,10.10
2022-10-04T07:25:47.766Z,10.10
2022-10-04T07:28:38.169Z,10.20
2022-10-04T07:31:12.791Z,10.20
2022-10-04T07:33:45.754Z,10.20
2022-10-04T07:36:21.990Z,10.20
2022-10-04T07:38:54.158Z,10.30
2022-10-04T07:41:27.770Z,10.30
2022-10-04T07:44:00.965Z,10.30
2022-10-04T07:46:44.361Z,10.30
2022-10-04T07:49:17.143Z,10.30
2022-10-04T07:52:09.205Z,10.40
2022-10-04T07:54:41.784Z,10.40
2022-10-04T07:57:18.863Z,10.40
2022-10-04T07:59:54.418Z,10.50
2022-10-04T08:02:31.410Z,10.50
2022-10-04T08:05:10.981Z,10.60
2022-10-04T08:07:51.098Z,10.60
2022-10-04T08:10:27.306Z,10.70
2022-10-04T08:13:05.867Z,10.70
2022-10-04T08:15:38.698Z,10.80
2022-10-04T08:18:19.413Z,10.90
2022-10-04T08:20:51.292Z,10.90
2022-10-04T08:23:40.635Z,11.00
2022-10-04T08:26:40.905Z,11.00
2022-10-04T08:29:47.709Z,11.00
2022-10-04T08:32:27.495Z,11.10
2022-10-04T08:35:12.928Z,11.10
2022-10-04T08:37:53.618Z,11.10
2022-10-04T08:41:02.500Z,11.20
2022-10-04T08:43:56.070Z,11.20
2022-10-04T08:46:55.594Z,11.30
2022-10-04T08:49:41.581Z,11.30
2022-10-04T08:52:30.063Z,11.40
2022-10-04T08:55:35.000Z,11.50
2022-10-04T08:58:13.908Z,11.50
2022-10-04T09:01:12.206Z,11.50
2022-10-04T09:04:16.985Z,11.60
2022-10-04T09:07:02.076Z,11.60
2022-10-04T09:09:58.093Z,11.60
2022-10-04T09:12:53.681Z,11.60
2022-10-04T09:15:39.415Z,11.70
2022-10-04T09:18:23.276Z,11.70
2022-10-04T09:20:59.097Z,11.70
2022-10-04T09:23:49.676Z,11.70
2022-10-04T09:26:23.749Z,11.80
2022-10-04T09:29:27.154Z,11.80
2022-10-04T09:32:34.586Z,11.90
2022-10-04T09:35:29.190Z,11.90
2022-10-04T09:38:20.134Z,12.00
2022-10-04T09:41:06.481Z,12.10
2022-10-04T09:44:17.478Z,12.10
2022-10-04T09:47:25.262Z,12.20
2022-10-04T09:50:31.891Z,12.20
2022-10-04T09:53:14.662Z,12.30
2022-10-04T09:55:55.325Z,12.30
2022-10-04T09:58:48.931Z,12.40
2022-10-04T10:01:24.722Z,12.50
2022-10-04T10:04:08.403Z,12.60
2022-10-04T10:06:56.262Z,12.70
2022-10-04T10:09:46.389Z,12.80
2022-10-04T10:12:47.170Z,12.80
2022-10-04T10:15:24.833Z,12.90
2022-10-04T10:18:01.229Z,13.00
2022-10-04T10:20:40.496Z,13.10
2022-10-04T10:23:53.478Z,13.20
2022-10-04T10:26:50.861Z,13.30
2022-10-04T10:29:54.481Z,13.40
2022-10-04T10:33:12.661Z,13.50
2022-10-04T10:35:54.209Z,13.60
2022-10-04T10:38:33.381Z,13.60
2022-10-04T10:41:38.300Z,13.70
2022-10-04T10:44:26.745Z,13.80
2022-10-04T10:47:06.604Z,13.90
2022-10-04T10:49:56.730Z,13.90
2022-10-04T10:52:59.300Z,14.00
2022-10-04T10:55:36.087Z,14.10
2022-10-04T10:58:40.502Z,14.10
2022-10-04T11:01:30.053Z,14.20
2022-10-04T11:04:35.661Z,14.20
2022-10-04T11:07:44.099Z,14.20
2022-10-04T11:10:34.037Z,14.30
2022-10-04T11:13:34.707Z,14.30
2022-10-04T11:16:39.283Z,14.40
2022-10-04T11:19:50.267Z,14.50
2022-10-04T11:22:57.503Z,14.50
2022-10-04T11:25:45.323Z,14.60
2022-10-04T11:28:18.331Z,14.60
2022-10-04T11:31:43.753Z,14.70
2022-10-04T11:34:48.516Z,14.70
2022-10-04T11:37:22.870Z,14.70
2022-10-04T11:40:05.595Z,14.80
2022-10-04T11:42:54.649Z,14.80
2022-10-04T11:45:55.790Z,14.80
2022-10-04T11:48:38.349Z,14.90
2022-10-04T11:51:37.893Z,14.90
2022-10-04T11:54:47.926Z,15.00
2022-10-04T11:57:27.392Z,15.00
2022-10-04T12:00:03.495Z,15.10
2022-10-04T12:03:16.006Z,15.10
2022-10-04T12:06:03.899Z,15.20
2022-10-04T12:08:42.377Z,15.20
2022-10-04T12:11:53.475Z,15.30
2022-10-04T12:14:38.755Z,15.40
2022-10-04T12:18:05.254Z,15.50
2022-10-04T12:20:56.875Z,15.60
2022-10-04T12:23:50.335Z,15.60
2022-10-04T12:26:48.569Z,15.70
2022-10-04T12:30:02.089Z,15.70
2022-10-04T12:32:35.347Z,15.80
2022-10-04T12:35:17.902Z,15.80
2022-10-04T12:38:16.810Z,15.80
2022-10-04T12:40:52.880Z,15.80
2022-10-04T12:43:30.452Z,15.80
2022-10-04T12:46:14.495Z,15.80
2022-10-04T12:49:03.730Z,15.90
2022-10-04T12:51:53.831Z,15.90
2022-10-04T12:54:39.165Z,16.00
2022-10-04T12:57:26.067Z,16.00
2022-10-04T13:00:04.657Z,16.00
2022-10-04T13:02:45.749Z,16.10
2022-10-04T13:05:22.366Z,16.10
2022-10-04T13:08:21.157Z,16.10
2022-10-04T13:11:11.031Z,16.20
2022-10-04T13:14:06.798Z,16.10
2022-10-04T13:19:42.609Z,16.20
2022-10-04T13:23:02.039Z,16.20
2022-10-04T13:26:06.258Z,16.30
2022-10-04T13:28:44.170Z,16.30
2022-10-04T13:31:23.823Z,16.40
2022-10-04T13:34:01.122Z,16.40
2022-10-04T13:36:43.290Z,16.60
2022-10-04T13:39:27.156Z,16.50
2022-10-04T13:42:12.923Z,16.60
2022-10-04T13:45:01.415Z,16.60
2022-10-04T13:47:52.440Z,16.60
2022-10-04T13:50:50.261Z,16.70
2022-10-04T13:53:51.822Z,16.80
2022-10-04T13:56:50.655Z,16.90
2022-10-04T13:59:33.653Z,16.90
2022-10-04T14:02:56.835Z,16.90
2022-10-04T14:06:07.026Z,16.90
2022-10-04T14:09:19.947Z,16.80
2022-10-04T14:12:26.504Z,16.80
2022-10-04T14:15:42.340Z,16.80
2022-10-04T14:18:46.580Z,16.80
2022-10-04T14:21:55.318Z,16.80
2022-10-04T14:24:56.895Z,16.80
2022-10-04T14:27:55.337Z,16.80
2022-10-04T14:30:25.649Z,16.80
2022-10-04T14:33:27.144Z,16.80
2022-10-04T14:36:24.659Z,16.80
2022-10-04T14:39:24.191Z,16.80
2022-10-04T14:42:32.793Z,16.80
2022-10-04T14:45:15.394Z,16.90
2022-10-04T14:48:10.774Z,16.90
2022-10-04T14:50:50.611Z,16.90
2022-10-04T14:53:27.579Z,16.90
2022-10-04T14:56:30.388Z,17.00
2022-10-04T14:59:16.797Z,17.00
2022-10-04T15:02:07.540Z,17.00
2022-10-04T15:04:58.209Z,17.00
2022-10-04T15:07:33.073Z,17.00
2022-10-04T15:10:11.598Z,17.00
2022-10-04T15:13:10.911Z,17.10
2022-10-04T15:16:15.118Z,17.10
2022-10-04T15:18:54.522Z,17.10
2022-10-04T15:21:47.759Z,17.10
2022-10-04T15:24:27.954Z,17.10
2022-10-04T15:27:39.142Z,17.00
2022-10-04T15:30:22.272Z,17.00
2022-10-04T15:33:01.348Z,17.10
2022-10-04T15:35:39.055Z,17.10
2022-10-04T15:38:20.699Z,17.00
2022-10-04T15:41:01.908Z,17.00
2022-10-04T15:43:34.800Z,17.00
2022-10-04T15:46:41.346Z,17.00
2022-10-04T15:49:25.569Z,16.90
2022-10-04T15:52:11.663Z,16.90
2022-10-04T15:54:52.267Z,16.90
2022-10-04T15:57:31.368Z,16.90
2022-10-04T16:00:08.800Z,16.80
2022-10-04T16:03:13.788Z,16.80
2022-10-04T16:05:47.136Z,16.80
2022-10-04T16:08:48.827Z,16.70
2022-10-04T16:11:56.090Z,16.70
2022-10-04T16:17:44.328Z,16.70
2022-10-04T16:20:54.566Z,16.70
2022-10-04T16:23:31.660Z,16.70
2022-10-04T16:26:10.623Z,16.70
2022-10-04T16:29:14.757Z,16.70
2022-10-04T16:31:56.100Z,16.70
2022-10-04T16:38:05.302Z,16.60
2022-10-04T16:40:38.895Z,16.50
2022-10-04T16:43:46.290Z,16.50
2022-10-04T16:46:53.367Z,16.40
2022-10-04T16:49:28.266Z,16.30
2022-10-04T16:52:18.265Z,16.30
2022-10-04T16:55:20.028Z,16.20
2022-10-04T16:58:21.490Z,16.10
2022-10-04T17:00:50.252Z,16.00
2022-10-04T17:03:24.394Z,15.90
2022-10-04T17:06:12.940Z,15.80
2022-10-04T17:09:03.967Z,15.80
2022-10-04T17:11:44.276Z,15.70
2022-10-04T17:14:49.260Z,15.60
2022-10-04T17:17:24.202Z,15.50
2022-10-04T17:19:57.387Z,15.50
2022-10-04T17:22:34.887Z,15.40
2022-10-04T17:25:15.999Z,15.30
2022-10-04T17:27:54.091Z,15.20
2022-10-04T17:30:23.948Z,15.10
2022-10-04T17:33:31.305Z,15.00
2022-10-04T17:36:14.314Z,14.90
2022-10-04T17:38:49.023Z,14.80
2022-10-04T17:41:29.524Z,14.70
2022-10-04T17:44:34.178Z,14.60
2022-10-04T17:47:13.443Z,14.60
2022-10-04T17:50:10.524Z,14.50
2022-10-04T17:53:01.991Z,14.50
2022-10-04T17:55:44.008Z,14.40
2022-10-04T17:58:17.331Z,14.40
2022-10-04T18:01:01.633Z,14.50
2022-10-04T18:03:38.342Z,14.50
2022-10-04T18:06:17.480Z,14.50
2022-10-04T18:08:52.935Z,14.50
2022-10-04T18:11:28.384Z,14.50
2022-10-04T18:14:02.440Z,14.40
2022-10-04T18:16:43.822Z,14.40
2022-10-04T18:19:38.805Z,14.30
2022-10-04T18:22:14.877Z,14.30
2022-10-04T18:24:44.755Z,14.30
2022-10-04T18:27:21.171Z,14.30
2022-10-04T18:30:03.167Z,14.30
2022-10-04T18:32:37.988Z,14.30
2022-10-04T18:35:23.031Z,14.30
2022-10-04T18:37:52.601Z,14.30
2022-10-04T18:40:22.629Z,14.30
2022-10-04T18:42:57.026Z,14.20
2022-10-04T18:45:28.362Z,14.20
2022-10-04T18:48:00.365Z,14.20
2022-10-04T18:50:37.705Z,14.20
2022-10-04T18:53:36.618Z,14.10
2022-10-04T18:56:08.386Z,14.10
2022-10-04T18:59:13.130Z,14.10
2022-10-04T19:02:03.347Z,14.10
2022-10-04T19:04:55.517Z,14.10
2022-10-04T19:07:33.206Z,14.00
2022-10-04T19:10:20.031Z,14.00
2022-10-04T19:12:58.125Z,13.90
2022-10-04T19:15:48.861Z,13.90
2022-10-04T19:18:40.167Z,13.80
2022-10-04T19:21:20.208Z,13.80
2022-10-04T19:24:08.391Z,13.70
2022-10-04T19:26:40.530Z,13.70
2022-10-04T19:29:27.448Z,13.60
2022-10-04T19:32:01.143Z,13.50
2022-10-04T19:34:41.876Z,13.60
2022-10-04T19:37:20.744Z,13.60
2022-10-04T19:39:59.041Z,13.60
2022-10-04T19:42:35.192Z,13.60
2022-10-04T19:45:18.345Z,13.60
2022-10-04T19:47:50.462Z,13.50
2022-10-04T19:50:21.552Z,13.50
2022-10-04T19:52:54.379Z,13.50
2022-10-04T19:55:27.434Z,13.40
2022-10-04T19:58:03.430Z,13.40
2022-10-04T20:00:33.034Z,13.30
2022-10-04T20:03:01.046Z,13.30
2022-10-04T20:05:30.207Z,13.30
2022-10-04T20:08:05.025Z,13.20
2022-10-04T20:10:35.720Z,13.20
2022-10-04T20:13:21.476Z,13.20
2022-10-04T20:15:56.414Z,13.20
2022-10-04T20:19:05.139Z,13.20
2022-10-04T20:21:33.473Z,13.20
2022-10-04T20:24:02.892Z,13.20
2022-10-04T20:26:56.328Z,13.20
2022-10-04T20:30:06.466Z,13.10
2022-10-04T20:33:07.225Z,13.10
2022-10-04T20:36:13.098Z,13.10
2022-10-04T20:38:59.372Z,13.10
2022-10-04T20:42:20.315Z,13.10
2022-10-04T20:44:57.059Z,13.00
2022-10-04T20:47:33.033Z,13.00
2022-10-04T20:50:02.339Z,12.90
2022-10-04T20:52:32.565Z,12.80
2022-10-04T20:55:02.908Z,12.80
2022-10-04T20:57:33.160Z,12.80
2022-10-04T21:00:05.689Z,12.70
2022-10-04T21:02:34.406Z,12.70
2022-10-04T21:05:13.595Z,12.70
2022-10-04T21:07:41.979Z,12.70
2022-10-04T21:10:17.931Z,12.70
2022-10-04T21:12:49.207Z,12.60
2022-10-04T21:15:22.823Z,12.60
2022-10-04T21:18:10.915Z,12.60
2022-10-04T21:20:46.866Z,12.60
2022-10-04T21:23:23.337Z,12.60
2022-10-04T21:25:51.827Z,12.60
2022-10-04T21:28:32.895Z,12.50
2022-10-04T21:31:02.100Z,12.50
2022-10-04T21:33:32.264Z,12.50
2022-10-04T21:36:00.509Z,12.50
2022-10-04T21:38:29.544Z,12.50
2022-10-04T21:40:58.043Z,12.40
2022-10-04T21:43:27.532Z,12.40
2022-10-04T21:45:55.825Z,12.30
2022-10-04T21:48:24.064Z,12.30
2022-10-04T21:50:53.319Z,12.30
2022-10-04T21:53:21.602Z,12.30
2022-10-04T21:55:49.777Z,12.30
2022-10-04T21:58:18.149Z,12.20
2022-10-04T22:00:47.541Z,12.20
2022-10-04T22:03:15.628Z,12.20
2022-10-04T22:05:43.687Z,12.10
2022-10-04T22:08:11.561Z,12.10
2022-10-04T22:10:39.972Z,12.10
2022-10-04T22:13:08.439Z,12.10
2022-10-04T22:15:36.781Z,12.10
2022-10-04T22:18:06.396Z,12.10
2022-10-04T22:20:34.921Z,12.10
2022-10-04T22:23:03.511Z,12.10
2022-10-04T22:25:31.583Z,12.10
2022-10-04T22:28:01.182Z,12.10
2022-10-04T22:30:31.135Z,12.10
2022-10-04T22:33:01.197Z,12.10
2022-10-04T22:35:34.587Z,12.00
2022-10-04T22:38:02.648Z,12.00
2022-10-04T22:40:30.795Z,12.00
2022-10-04T22:43:00.818Z,12.00
2022-10-04T22:45:33.356Z,12.00
2022-10-04T22:48:07.975Z,11.90
2022-10-04T22:50:38.411Z,12.00
2022-10-04T22:53:14.180Z,11.90
2022-10-04T22:55:42.247Z,11.90
2022-10-04T22:58:14.070Z,11.90
2022-10-04T23:00:43.333Z,11.90
2022-10-04T23:03:27.475Z,11.90
2022-10-04T23:05:56.792Z,11.90
2022-10-04T23:08:25.194Z,11.90
2022-10-04T23:10:55.556Z,11.90
2022-10-04T23:13:24.860Z,11.90
2022-10-04T23:15:53.853Z,11.90
2022-10-04T23:18:21.874Z,11.80
2022-10-04T23:20:55.581Z,11.90
2022-10-04T23:23:28.036Z,11.90
2022-10-04T23:25:56.708Z,11.90
2022-10-04T23:28:25.416Z,11.90
2022-10-04T23:31:02.677Z,11.80
2022-10-04T23:33:30.623Z,11.80
2022-10-04T23:35:58.954Z,11.80
2022-10-04T23:38:29.246Z,11.70
2022-10-04T23:40:57.200Z,11.70
2022-10-04T23:43:26.816Z,11.60
2022-10-04T23:45:56.744Z,11.60
2022-10-04T23:48:27.912Z,11.60
2022-10-04T23:50:59.675Z,11.60
2022-10-04T23:53:31.577Z,11.50
2022-10-04T23:56:03.670Z,11.50
2022-10-04T23:58:34.949Z,11.50
